sensor_id;sensor_type;location;lat;lon;timestamp;P1;durP1;ratioP1;P2;durP2;ratioP2
59474;SDS011;45288;51.136;16.928;2022-12-29T00:01:16;3.73;;;2.60;;
59474;SDS011;45288;51.136;16.928;2022-12-29T00:03:45;4.50;;;2.63;;
59474;SDS011;45288;51.136;16.928;2022-12-29T00:06:10;4.60;;;3.00;;
59474;SDS011;45288;51.136;16.928;2022-12-29T00:08:36;4.32;;;3.17;;
59474;SDS011;45288;51.136;16.928;2022-12-29T00:11:06;7.10;;;3.30;;
59474;SDS011;45288;51.136;16.928;2022-12-29T00:13:32;5.70;;;2.83;;
59474;SDS011;45288;51.136;16.928;2022-12-29T00:16:16;4.57;;;2.70;;
59474;SDS011;45288;51.136;16.928;2022-12-29T00:18:41;5.45;;;3.00;;
59474;SDS011;45288;51.136;16.928;2022-12-29T00:21:08;4.77;;;2.73;;
59474;SDS011;45288;51.136;16.928;2022-12-29T00:23:54;4.97;;;2.70;;
59474;SDS011;45288;51.136;16.928;2022-12-29T00:27:19;4.05;;;2.72;;
59474;SDS011;45288;51.136;16.928;2022-12-29T00:29:56;4.90;;;3.17;;
59474;SDS011;45288;51.136;16.928;2022-12-29T00:32:41;3.95;;;2.90;;
59474;SDS011;45288;51.136;16.928;2022-12-29T00:35:29;5.53;;;3.00;;
59474;SDS011;45288;51.136;16.928;2022-12-29T00:37:57;5.90;;;3.10;;
59474;SDS011;45288;51.136;16.928;2022-12-29T00:40:42;4.95;;;3.28;;
59474;SDS011;45288;51.136;16.928;2022-12-29T00:43:37;5.85;;;3.10;;
59474;SDS011;45288;51.136;16.928;2022-12-29T00:46:21;3.90;;;3.00;;
59474;SDS011;45288;51.136;16.928;2022-12-29T00:48:47;4.97;;;3.20;;
59474;SDS011;45288;51.136;16.928;2022-12-29T00:51:31;7.33;;;3.53;;
59474;SDS011;45288;51.136;16.928;2022-12-29T00:53:57;4.53;;;3.00;;
59474;SDS011;45288;51.136;16.928;2022-12-29T00:56:23;5.05;;;3.38;;
59474;SDS011;45288;51.136;16.928;2022-12-29T00:58:48;5.83;;;3.33;;
59474;SDS011;45288;51.136;16.928;2022-12-29T01:01:14;5.53;;;3.50;;
59474;SDS011;45288;51.136;16.928;2022-12-29T01:03:40;4.83;;;3.27;;
59474;SDS011;45288;51.136;16.928;2022-12-29T01:06:06;5.10;;;3.22;;
59474;SDS011;45288;51.136;16.928;2022-12-29T01:08:32;5.88;;;3.17;;
59474;SDS011;45288;51.136;16.928;2022-12-29T01:11:03;5.90;;;3.40;;
59474;SDS011;45288;51.136;16.928;2022-12-29T01:13:29;6.25;;;3.25;;
59474;SDS011;45288;51.136;16.928;2022-12-29T01:15:54;6.10;;;3.40;;
59474;SDS011;45288;51.136;16.928;2022-12-29T01:18:20;4.95;;;2.83;;
59474;SDS011;45288;51.136;16.928;2022-12-29T01:20:46;4.07;;;2.70;;
59474;SDS011;45288;51.136;16.928;2022-12-29T01:23:11;4.17;;;2.57;;
59474;SDS011;45288;51.136;16.928;2022-12-29T01:25:37;4.25;;;2.80;;
59474;SDS011;45288;51.136;16.928;2022-12-29T01:28:03;4.03;;;2.60;;
59474;SDS011;45288;51.136;16.928;2022-12-29T01:30:29;4.85;;;2.90;;
59474;SDS011;45288;51.136;16.928;2022-12-29T01:32:54;5.23;;;2.77;;
59474;SDS011;45288;51.136;16.928;2022-12-29T01:35:20;5.37;;;2.50;;
59474;SDS011;45288;51.136;16.928;2022-12-29T01:37:45;3.38;;;2.40;;
59474;SDS011;45288;51.136;16.928;2022-12-29T01:40:11;4.40;;;2.37;;
59474;SDS011;45288;51.136;16.928;2022-12-29T01:42:37;4.07;;;2.30;;
59474;SDS011;45288;51.136;16.928;2022-12-29T01:45:03;3.17;;;2.30;;
59474;SDS011;45288;51.136;16.928;2022-12-29T01:50:09;3.05;;;2.28;;
59474;SDS011;45288;51.136;16.928;2022-12-29T01:52:36;3.28;;;2.38;;
59474;SDS011;45288;51.136;16.928;2022-12-29T01:55:04;4.32;;;2.60;;
59474;SDS011;45288;51.136;16.928;2022-12-29T01:57:34;3.90;;;2.53;;
59474;SDS011;45288;51.136;16.928;2022-12-29T02:00:03;4.50;;;2.33;;
59474;SDS011;45288;51.136;16.928;2022-12-29T02:02:38;4.85;;;2.50;;
59474;SDS011;45288;51.136;16.928;2022-12-29T02:05:08;3.45;;;2.40;;
59474;SDS011;45288;51.136;16.928;2022-12-29T02:07:36;4.22;;;2.30;;
59474;SDS011;45288;51.136;16.928;2022-12-29T02:10:02;3.42;;;2.30;;
59474;SDS011;45288;51.136;16.928;2022-12-29T02:12:29;3.08;;;2.30;;
59474;SDS011;45288;51.136;16.928;2022-12-29T02:14:55;3.43;;;2.40;;
59474;SDS011;45288;51.136;16.928;2022-12-29T02:30:49;3.17;;;2.22;;
59474;SDS011;45288;51.136;16.928;2022-12-29T02:36:20;4.60;;;2.13;;
59474;SDS011;45288;51.136;16.928;2022-12-29T02:38:59;3.00;;;2.00;;
59474;SDS011;45288;51.136;16.928;2022-12-29T02:44:01;3.23;;;2.20;;
59474;SDS011;45288;51.136;16.928;2022-12-29T02:51:37;3.05;;;2.17;;
59474;SDS011;45288;51.136;16.928;2022-12-29T02:54:05;5.03;;;2.40;;
59474;SDS011;45288;51.136;16.928;2022-12-29T02:56:49;3.28;;;2.13;;
59474;SDS011;45288;51.136;16.928;2022-12-29T02:59:15;4.13;;;2.15;;
59474;SDS011;45288;51.136;16.928;2022-12-29T03:12:30;3.00;;;1.98;;
59474;SDS011;45288;51.136;16.928;2022-12-29T03:15:18;2.70;;;1.90;;
59474;SDS011;45288;51.136;16.928;2022-12-29T03:18:06;3.15;;;2.00;;
59474;SDS011;45288;51.136;16.928;2022-12-29T03:20:40;2.40;;;1.88;;
59474;SDS011;45288;51.136;16.928;2022-12-29T03:23:07;2.30;;;1.70;;
59474;SDS011;45288;51.136;16.928;2022-12-29T03:25:54;3.80;;;2.00;;
59474;SDS011;45288;51.136;16.928;2022-12-29T03:28:22;2.58;;;2.00;;
59474;SDS011;45288;51.136;16.928;2022-12-29T03:30:48;3.63;;;2.20;;
59474;SDS011;45288;51.136;16.928;2022-12-29T03:33:18;2.97;;;1.88;;
59474;SDS011;45288;51.136;16.928;2022-12-29T03:35:45;2.38;;;1.98;;
59474;SDS011;45288;51.136;16.928;2022-12-29T03:38:14;5.70;;;2.10;;
59474;SDS011;45288;51.136;16.928;2022-12-29T03:40:41;2.08;;;1.85;;
59474;SDS011;45288;51.136;16.928;2022-12-29T03:43:08;3.00;;;2.10;;
59474;SDS011;45288;51.136;16.928;2022-12-29T03:45:35;2.63;;;1.80;;
59474;SDS011;45288;51.136;16.928;2022-12-29T03:48:01;2.13;;;1.75;;
59474;SDS011;45288;51.136;16.928;2022-12-29T03:50:28;2.80;;;2.05;;
59474;SDS011;45288;51.136;16.928;2022-12-29T03:52:54;3.40;;;2.10;;
59474;SDS011;45288;51.136;16.928;2022-12-29T03:55:19;2.70;;;2.00;;
59474;SDS011;45288;51.136;16.928;2022-12-29T03:57:45;3.90;;;2.20;;
59474;SDS011;45288;51.136;16.928;2022-12-29T04:00:16;4.10;;;2.40;;
59474;SDS011;45288;51.136;16.928;2022-12-29T04:02:44;3.50;;;2.13;;
59474;SDS011;45288;51.136;16.928;2022-12-29T04:05:15;3.40;;;2.10;;
59474;SDS011;45288;51.136;16.928;2022-12-29T04:07:41;3.38;;;2.08;;
59474;SDS011;45288;51.136;16.928;2022-12-29T04:10:07;3.37;;;2.07;;
59474;SDS011;45288;51.136;16.928;2022-12-29T04:12:34;3.90;;;2.42;;
59474;SDS011;45288;51.136;16.928;2022-12-29T04:15:00;3.50;;;2.60;;
59474;SDS011;45288;51.136;16.928;2022-12-29T04:17:26;4.47;;;2.83;;
59474;SDS011;45288;51.136;16.928;2022-12-29T04:19:53;4.30;;;2.67;;
59474;SDS011;45288;51.136;16.928;2022-12-29T04:22:39;4.85;;;2.72;;
59474;SDS011;45288;51.136;16.928;2022-12-29T04:25:05;4.78;;;2.70;;
59474;SDS011;45288;51.136;16.928;2022-12-29T04:27:32;4.70;;;2.60;;
59474;SDS011;45288;51.136;16.928;2022-12-29T04:30:21;3.40;;;2.28;;
59474;SDS011;45288;51.136;16.928;2022-12-29T04:32:58;4.35;;;2.30;;
59474;SDS011;45288;51.136;16.928;2022-12-29T04:35:24;3.67;;;2.30;;
59474;SDS011;45288;51.136;16.928;2022-12-29T04:37:50;4.10;;;2.40;;
59474;SDS011;45288;51.136;16.928;2022-12-29T04:40:16;3.97;;;2.50;;
59474;SDS011;45288;51.136;16.928;2022-12-29T04:42:42;2.57;;;2.10;;
59474;SDS011;45288;51.136;16.928;2022-12-29T04:45:07;3.22;;;2.17;;
59474;SDS011;45288;51.136;16.928;2022-12-29T04:47:42;2.97;;;2.20;;
59474;SDS011;45288;51.136;16.928;2022-12-29T04:50:41;2.90;;;2.20;;
59474;SDS011;45288;51.136;16.928;2022-12-29T04:53:16;3.38;;;2.30;;
59474;SDS011;45288;51.136;16.928;2022-12-29T04:55:43;3.43;;;2.13;;
59474;SDS011;45288;51.136;16.928;2022-12-29T04:58:08;2.80;;;2.13;;
59474;SDS011;45288;51.136;16.928;2022-12-29T05:00:35;3.33;;;2.07;;
59474;SDS011;45288;51.136;16.928;2022-12-29T05:03:00;3.08;;;1.80;;
59474;SDS011;45288;51.136;16.928;2022-12-29T05:05:27;3.72;;;2.03;;
59474;SDS011;45288;51.136;16.928;2022-12-29T05:07:53;2.77;;;2.07;;
59474;SDS011;45288;51.136;16.928;2022-12-29T05:10:18;2.30;;;2.00;;
59474;SDS011;45288;51.136;16.928;2022-12-29T05:12:45;2.55;;;1.85;;
59474;SDS011;45288;51.136;16.928;2022-12-29T05:15:12;2.35;;;1.80;;
59474;SDS011;45288;51.136;16.928;2022-12-29T05:17:38;2.60;;;2.03;;
59474;SDS011;45288;51.136;16.928;2022-12-29T05:20:05;3.42;;;1.85;;
59474;SDS011;45288;51.136;16.928;2022-12-29T05:22:32;2.60;;;1.88;;
59474;SDS011;45288;51.136;16.928;2022-12-29T05:24:58;4.00;;;2.03;;
59474;SDS011;45288;51.136;16.928;2022-12-29T05:27:24;1.80;;;1.63;;
59474;SDS011;45288;51.136;16.928;2022-12-29T05:30:08;3.50;;;2.10;;
59474;SDS011;45288;51.136;16.928;2022-12-29T05:32:34;3.42;;;2.00;;
59474;SDS011;45288;51.136;16.928;2022-12-29T05:35:00;2.78;;;2.05;;
59474;SDS011;45288;51.136;16.928;2022-12-29T05:37:27;3.80;;;2.00;;
59474;SDS011;45288;51.136;16.928;2022-12-29T05:39:54;3.77;;;2.20;;
59474;SDS011;45288;51.136;16.928;2022-12-29T05:42:20;2.65;;;2.20;;
59474;SDS011;45288;51.136;16.928;2022-12-29T05:45:00;3.38;;;2.40;;
59474;SDS011;45288;51.136;16.928;2022-12-29T05:47:54;2.92;;;2.22;;
59474;SDS011;45288;51.136;16.928;2022-12-29T05:50:55;3.25;;;2.20;;
59474;SDS011;45288;51.136;16.928;2022-12-29T05:53:29;5.15;;;2.60;;
59474;SDS011;45288;51.136;16.928;2022-12-29T05:55:55;3.20;;;2.30;;
59474;SDS011;45288;51.136;16.928;2022-12-29T05:58:21;3.92;;;2.33;;
59474;SDS011;45288;51.136;16.928;2022-12-29T06:00:47;2.55;;;2.28;;
59474;SDS011;45288;51.136;16.928;2022-12-29T06:03:13;3.65;;;2.30;;
59474;SDS011;45288;51.136;16.928;2022-12-29T06:05:40;3.70;;;2.30;;
59474;SDS011;45288;51.136;16.928;2022-12-29T06:08:06;4.72;;;2.33;;
59474;SDS011;45288;51.136;16.928;2022-12-29T06:10:33;3.78;;;2.60;;
59474;SDS011;45288;51.136;16.928;2022-12-29T06:13:04;3.83;;;2.50;;
59474;SDS011;45288;51.136;16.928;2022-12-29T06:15:33;5.15;;;2.65;;
59474;SDS011;45288;51.136;16.928;2022-12-29T06:17:59;4.80;;;2.57;;
59474;SDS011;45288;51.136;16.928;2022-12-29T06:20:25;4.78;;;2.80;;
59474;SDS011;45288;51.136;16.928;2022-12-29T06:22:51;4.90;;;2.53;;
59474;SDS011;45288;51.136;16.928;2022-12-29T06:25:17;3.30;;;2.40;;
59474;SDS011;45288;51.136;16.928;2022-12-29T06:27:44;4.13;;;2.40;;
59474;SDS011;45288;51.136;16.928;2022-12-29T06:30:09;3.00;;;2.70;;
59474;SDS011;45288;51.136;16.928;2022-12-29T06:32:37;3.60;;;2.55;;
59474;SDS011;45288;51.136;16.928;2022-12-29T06:35:04;4.53;;;2.45;;
59474;SDS011;45288;51.136;16.928;2022-12-29T06:37:33;4.03;;;2.85;;
59474;SDS011;45288;51.136;16.928;2022-12-29T06:39:59;4.87;;;2.70;;
59474;SDS011;45288;51.136;16.928;2022-12-29T06:42:33;3.25;;;2.70;;
59474;SDS011;45288;51.136;16.928;2022-12-29T06:45:27;3.63;;;2.70;;
59474;SDS011;45288;51.136;16.928;2022-12-29T06:47:53;4.95;;;3.03;;
59474;SDS011;45288;51.136;16.928;2022-12-29T06:50:19;3.67;;;2.90;;
59474;SDS011;45288;51.136;16.928;2022-12-29T06:52:44;3.83;;;2.60;;
59474;SDS011;45288;51.136;16.928;2022-12-29T06:55:10;4.70;;;3.10;;
59474;SDS011;45288;51.136;16.928;2022-12-29T06:57:35;4.60;;;2.80;;
59474;SDS011;45288;51.136;16.928;2022-12-29T07:00:02;3.87;;;2.90;;
59474;SDS011;45288;51.136;16.928;2022-12-29T07:02:27;4.45;;;2.92;;
59474;SDS011;45288;51.136;16.928;2022-12-29T07:04:53;4.87;;;2.90;;
59474;SDS011;45288;51.136;16.928;2022-12-29T07:07:19;3.28;;;2.40;;
59474;SDS011;45288;51.136;16.928;2022-12-29T07:09:45;3.60;;;2.40;;
59474;SDS011;45288;51.136;16.928;2022-12-29T07:12:11;3.10;;;2.30;;
59474;SDS011;45288;51.136;16.928;2022-12-29T07:14:36;3.07;;;2.40;;
59474;SDS011;45288;51.136;16.928;2022-12-29T07:17:02;3.45;;;2.60;;
59474;SDS011;45288;51.136;16.928;2022-12-29T07:19:31;2.33;;;2.10;;
59474;SDS011;45288;51.136;16.928;2022-12-29T07:21:56;4.50;;;2.28;;
59474;SDS011;45288;51.136;16.928;2022-12-29T07:24:22;4.20;;;2.20;;
59474;SDS011;45288;51.136;16.928;2022-12-29T07:26:48;3.47;;;2.50;;
59474;SDS011;45288;51.136;16.928;2022-12-29T07:29:13;3.63;;;2.50;;
59474;SDS011;45288;51.136;16.928;2022-12-29T07:31:39;3.83;;;2.53;;
59474;SDS011;45288;51.136;16.928;2022-12-29T07:34:05;2.80;;;2.20;;
59474;SDS011;45288;51.136;16.928;2022-12-29T07:36:31;3.40;;;2.60;;
59474;SDS011;45288;51.136;16.928;2022-12-29T07:38:57;3.57;;;2.17;;
59474;SDS011;45288;51.136;16.928;2022-12-29T07:41:22;3.67;;;2.40;;
59474;SDS011;45288;51.136;16.928;2022-12-29T07:43:48;3.80;;;2.40;;
59474;SDS011;45288;51.136;16.928;2022-12-29T07:46:29;3.75;;;2.70;;
59474;SDS011;45288;51.136;16.928;2022-12-29T07:48:55;4.03;;;2.60;;
59474;SDS011;45288;51.136;16.928;2022-12-29T07:51:20;3.83;;;2.70;;
59474;SDS011;45288;51.136;16.928;2022-12-29T07:53:46;3.60;;;2.60;;
59474;SDS011;45288;51.136;16.928;2022-12-29T07:56:11;3.80;;;2.55;;
59474;SDS011;45288;51.136;16.928;2022-12-29T07:58:37;4.10;;;2.50;;
59474;SDS011;45288;51.136;16.928;2022-12-29T08:01:03;5.30;;;2.50;;
59474;SDS011;45288;51.136;16.928;2022-12-29T08:03:28;3.13;;;2.30;;
59474;SDS011;45288;51.136;16.928;2022-12-29T08:05:54;4.90;;;2.60;;
59474;SDS011;45288;51.136;16.928;2022-12-29T08:08:22;4.82;;;2.53;;
59474;SDS011;45288;51.136;16.928;2022-12-29T08:10:47;4.18;;;2.90;;
59474;SDS011;45288;51.136;16.928;2022-12-29T08:13:13;4.33;;;2.60;;
59474;SDS011;45288;51.136;16.928;2022-12-29T08:15:39;3.90;;;2.60;;
59474;SDS011;45288;51.136;16.928;2022-12-29T08:18:05;3.50;;;2.70;;
59474;SDS011;45288;51.136;16.928;2022-12-29T08:20:31;4.13;;;2.60;;
59474;SDS011;45288;51.136;16.928;2022-12-29T08:22:57;4.20;;;2.55;;
59474;SDS011;45288;51.136;16.928;2022-12-29T08:25:23;4.38;;;2.63;;
59474;SDS011;45288;51.136;16.928;2022-12-29T08:27:48;3.67;;;2.40;;
59474;SDS011;45288;51.136;16.928;2022-12-29T08:30:14;4.20;;;2.40;;
59474;SDS011;45288;51.136;16.928;2022-12-29T08:32:40;3.30;;;2.50;;
59474;SDS011;45288;51.136;16.928;2022-12-29T08:35:06;4.17;;;2.60;;
59474;SDS011;45288;51.136;16.928;2022-12-29T08:37:32;3.40;;;2.40;;
59474;SDS011;45288;51.136;16.928;2022-12-29T08:39:58;2.95;;;2.40;;
59474;SDS011;45288;51.136;16.928;2022-12-29T08:42:25;4.40;;;2.83;;
59474;SDS011;45288;51.136;16.928;2022-12-29T08:44:56;3.85;;;2.65;;
59474;SDS011;45288;51.136;16.928;2022-12-29T08:47:22;4.72;;;2.90;;
59474;SDS011;45288;51.136;16.928;2022-12-29T08:49:48;5.83;;;3.30;;
59474;SDS011;45288;51.136;16.928;2022-12-29T08:52:13;5.60;;;3.15;;
59474;SDS011;45288;51.136;16.928;2022-12-29T08:54:39;4.77;;;3.10;;
59474;SDS011;45288;51.136;16.928;2022-12-29T08:57:04;4.45;;;3.00;;
59474;SDS011;45288;51.136;16.928;2022-12-29T08:59:38;4.28;;;2.92;;
59474;SDS011;45288;51.136;16.928;2022-12-29T09:02:04;3.87;;;2.63;;
59474;SDS011;45288;51.136;16.928;2022-12-29T09:04:33;4.88;;;2.90;;
59474;SDS011;45288;51.136;16.928;2022-12-29T09:06:58;4.50;;;2.93;;
59474;SDS011;45288;51.136;16.928;2022-12-29T09:09:24;5.03;;;2.72;;
59474;SDS011;45288;51.136;16.928;2022-12-29T09:11:49;5.43;;;2.60;;
59474;SDS011;45288;51.136;16.928;2022-12-29T09:14:15;4.65;;;2.90;;
59474;SDS011;45288;51.136;16.928;2022-12-29T09:16:40;3.60;;;2.50;;
59474;SDS011;45288;51.136;16.928;2022-12-29T09:19:25;7.40;;;3.78;;
59474;SDS011;45288;51.136;16.928;2022-12-29T09:21:50;4.63;;;2.90;;
59474;SDS011;45288;51.136;16.928;2022-12-29T09:24:16;4.80;;;2.50;;
59474;SDS011;45288;51.136;16.928;2022-12-29T09:26:42;5.37;;;2.90;;
59474;SDS011;45288;51.136;16.928;2022-12-29T09:29:08;3.40;;;2.67;;
59474;SDS011;45288;51.136;16.928;2022-12-29T09:31:33;5.03;;;2.87;;
59474;SDS011;45288;51.136;16.928;2022-12-29T09:33:59;4.15;;;2.70;;
59474;SDS011;45288;51.136;16.928;2022-12-29T09:36:24;4.80;;;2.43;;
59474;SDS011;45288;51.136;16.928;2022-12-29T09:38:52;3.75;;;2.60;;
59474;SDS011;45288;51.136;16.928;2022-12-29T09:41:24;3.53;;;2.35;;
59474;SDS011;45288;51.136;16.928;2022-12-29T09:43:55;4.05;;;2.60;;
59474;SDS011;45288;51.136;16.928;2022-12-29T09:46:29;4.87;;;2.77;;
59474;SDS011;45288;51.136;16.928;2022-12-29T09:51:42;4.27;;;2.90;;
59474;SDS011;45288;51.136;16.928;2022-12-29T09:54:21;4.80;;;2.80;;
59474;SDS011;45288;51.136;16.928;2022-12-29T09:56:48;4.03;;;2.83;;
59474;SDS011;45288;51.136;16.928;2022-12-29T09:59:15;4.80;;;2.80;;
59474;SDS011;45288;51.136;16.928;2022-12-29T10:01:44;3.80;;;2.72;;
59474;SDS011;45288;51.136;16.928;2022-12-29T10:04:11;3.42;;;2.67;;
59474;SDS011;45288;51.136;16.928;2022-12-29T10:06:50;4.50;;;2.97;;
59474;SDS011;45288;51.136;16.928;2022-12-29T10:09:22;4.38;;;2.78;;
59474;SDS011;45288;51.136;16.928;2022-12-29T10:18:08;5.35;;;2.78;;
59474;SDS011;45288;51.136;16.928;2022-12-29T10:25:22;5.53;;;2.70;;
59474;SDS011;45288;51.136;16.928;2022-12-29T10:27:49;5.30;;;2.60;;
59474;SDS011;45288;51.136;16.928;2022-12-29T10:30:15;4.22;;;2.67;;
59474;SDS011;45288;51.136;16.928;2022-12-29T10:32:48;5.03;;;2.97;;
59474;SDS011;45288;51.136;16.928;2022-12-29T10:35:16;3.80;;;2.70;;
59474;SDS011;45288;51.136;16.928;2022-12-29T10:37:46;4.15;;;2.83;;
59474;SDS011;45288;51.136;16.928;2022-12-29T10:40:18;5.47;;;3.20;;
59474;SDS011;45288;51.136;16.928;2022-12-29T10:42:46;2.92;;;2.47;;
59474;SDS011;45288;51.136;16.928;2022-12-29T10:45:13;3.55;;;2.50;;
59474;SDS011;45288;51.136;16.928;2022-12-29T10:47:44;3.95;;;2.70;;
59474;SDS011;45288;51.136;16.928;2022-12-29T10:50:15;3.92;;;2.70;;
59474;SDS011;45288;51.136;16.928;2022-12-29T10:52:41;5.10;;;2.58;;
59474;SDS011;45288;51.136;16.928;2022-12-29T10:55:14;5.90;;;2.70;;
59474;SDS011;45288;51.136;16.928;2022-12-29T10:57:41;4.30;;;2.60;;
59474;SDS011;45288;51.136;16.928;2022-12-29T11:00:13;3.67;;;2.60;;
59474;SDS011;45288;51.136;16.928;2022-12-29T11:02:43;3.55;;;2.70;;
59474;SDS011;45288;51.136;16.928;2022-12-29T11:05:27;4.13;;;2.70;;
59474;SDS011;45288;51.136;16.928;2022-12-29T11:08:00;4.78;;;3.33;;
59474;SDS011;45288;51.136;16.928;2022-12-29T11:10:34;5.13;;;3.20;;
59474;SDS011;45288;51.136;16.928;2022-12-29T11:13:15;6.00;;;3.25;;
59474;SDS011;45288;51.136;16.928;2022-12-29T11:15:47;5.55;;;3.40;;
59474;SDS011;45288;51.136;16.928;2022-12-29T11:20:58;4.82;;;3.35;;
59474;SDS011;45288;51.136;16.928;2022-12-29T11:23:44;4.25;;;3.03;;
59474;SDS011;45288;51.136;16.928;2022-12-29T11:26:24;5.63;;;3.00;;
59474;SDS011;45288;51.136;16.928;2022-12-29T11:31:40;4.07;;;3.03;;
59474;SDS011;45288;51.136;16.928;2022-12-29T11:34:06;4.05;;;3.20;;
59474;SDS011;45288;51.136;16.928;2022-12-29T11:36:32;4.55;;;3.03;;
59474;SDS011;45288;51.136;16.928;2022-12-29T11:39:00;5.27;;;3.33;;
59474;SDS011;45288;51.136;16.928;2022-12-29T11:41:26;4.47;;;3.00;;
59474;SDS011;45288;51.136;16.928;2022-12-29T11:43:53;6.05;;;3.45;;
59474;SDS011;45288;51.136;16.928;2022-12-29T11:46:31;4.63;;;3.03;;
59474;SDS011;45288;51.136;16.928;2022-12-29T11:48:57;5.55;;;3.15;;
59474;SDS011;45288;51.136;16.928;2022-12-29T11:51:30;5.00;;;3.20;;
59474;SDS011;45288;51.136;16.928;2022-12-29T11:53:59;6.53;;;3.00;;
59474;SDS011;45288;51.136;16.928;2022-12-29T11:56:36;4.53;;;3.00;;
59474;SDS011;45288;51.136;16.928;2022-12-29T12:01:48;5.20;;;3.05;;
59474;SDS011;45288;51.136;16.928;2022-12-29T12:04:16;5.95;;;3.40;;
59474;SDS011;45288;51.136;16.928;2022-12-29T12:07:05;5.88;;;3.20;;
59474;SDS011;45288;51.136;16.928;2022-12-29T12:09:32;4.85;;;3.33;;
59474;SDS011;45288;51.136;16.928;2022-12-29T12:11:59;6.00;;;3.30;;
59474;SDS011;45288;51.136;16.928;2022-12-29T12:14:28;4.90;;;3.40;;
59474;SDS011;45288;51.136;16.928;2022-12-29T12:17:16;3.90;;;2.90;;
59474;SDS011;45288;51.136;16.928;2022-12-29T12:20:00;5.73;;;3.30;;
59474;SDS011;45288;51.136;16.928;2022-12-29T12:22:37;5.60;;;3.33;;
59474;SDS011;45288;51.136;16.928;2022-12-29T12:25:20;5.60;;;3.30;;
59474;SDS011;45288;51.136;16.928;2022-12-29T12:28:09;4.70;;;3.17;;
59474;SDS011;45288;51.136;16.928;2022-12-29T12:30:37;5.05;;;3.40;;
59474;SDS011;45288;51.136;16.928;2022-12-29T12:33:06;6.30;;;3.80;;
59474;SDS011;45288;51.136;16.928;2022-12-29T12:46:10;7.10;;;3.60;;
59474;SDS011;45288;51.136;16.928;2022-12-29T12:48:59;4.40;;;3.15;;
59474;SDS011;45288;51.136;16.928;2022-12-29T12:51:51;4.93;;;3.40;;
59474;SDS011;45288;51.136;16.928;2022-12-29T13:17:30;4.35;;;3.38;;
59474;SDS011;45288;51.136;16.928;2022-12-29T13:20:41;5.35;;;3.63;;
59474;SDS011;45288;51.136;16.928;2022-12-29T13:22:49;6.45;;;4.03;;
59474;SDS011;45288;51.136;16.928;2022-12-29T13:25:27;6.45;;;3.80;;
59474;SDS011;45288;51.136;16.928;2022-12-29T13:30:46;6.75;;;4.22;;
59474;SDS011;45288;51.136;16.928;2022-12-29T13:38:30;6.50;;;3.80;;
59474;SDS011;45288;51.136;16.928;2022-12-29T13:41:03;5.45;;;3.90;;
59474;SDS011;45288;51.136;16.928;2022-12-29T13:43:30;5.72;;;3.95;;
59474;SDS011;45288;51.136;16.928;2022-12-29T13:46:02;5.63;;;4.10;;
59474;SDS011;45288;51.136;16.928;2022-12-29T13:48:51;5.50;;;3.78;;
59474;SDS011;45288;51.136;16.928;2022-12-29T13:51:15;5.70;;;3.63;;
59474;SDS011;45288;51.136;16.928;2022-12-29T13:56:31;6.45;;;3.75;;
59474;SDS011;45288;51.136;16.928;2022-12-29T13:59:12;4.90;;;3.33;;
59474;SDS011;45288;51.136;16.928;2022-12-29T14:04:17;5.22;;;4.10;;
59474;SDS011;45288;51.136;16.928;2022-12-29T14:06:46;5.88;;;3.53;;
59474;SDS011;45288;51.136;16.928;2022-12-29T14:09:30;5.77;;;3.70;;
59474;SDS011;45288;51.136;16.928;2022-12-29T14:11:59;5.93;;;3.70;;
59474;SDS011;45288;51.136;16.928;2022-12-29T14:14:28;5.47;;;3.90;;
59474;SDS011;45288;51.136;16.928;2022-12-29T14:16:56;5.35;;;3.88;;
59474;SDS011;45288;51.136;16.928;2022-12-29T14:19:34;6.07;;;3.63;;
59474;SDS011;45288;51.136;16.928;2022-12-29T14:22:02;6.63;;;4.50;;
59474;SDS011;45288;51.136;16.928;2022-12-29T14:27:51;9.10;;;4.10;;
59474;SDS011;45288;51.136;16.928;2022-12-29T14:29:47;6.72;;;4.40;;
59474;SDS011;45288;51.136;16.928;2022-12-29T14:34:54;8.00;;;4.60;;
59474;SDS011;45288;51.136;16.928;2022-12-29T14:37:25;6.97;;;4.60;;
59474;SDS011;45288;51.136;16.928;2022-12-29T14:42:29;10.35;;;4.90;;
59474;SDS011;45288;51.136;16.928;2022-12-29T14:50:33;7.57;;;5.13;;
59474;SDS011;45288;51.136;16.928;2022-12-29T14:52:52;8.05;;;5.03;;
59474;SDS011;45288;51.136;16.928;2022-12-29T14:57:57;9.18;;;5.53;;
59474;SDS011;45288;51.136;16.928;2022-12-29T15:00:24;8.60;;;5.63;;
59474;SDS011;45288;51.136;16.928;2022-12-29T15:03:05;9.57;;;6.13;;
59474;SDS011;45288;51.136;16.928;2022-12-29T15:05:41;9.88;;;6.05;;
59474;SDS011;45288;51.136;16.928;2022-12-29T15:08:08;8.55;;;5.80;;
59474;SDS011;45288;51.136;16.928;2022-12-29T15:10:37;8.70;;;5.78;;
59474;SDS011;45288;51.136;16.928;2022-12-29T15:13:04;9.68;;;6.20;;
59474;SDS011;45288;51.136;16.928;2022-12-29T15:15:35;11.63;;;6.72;;
59474;SDS011;45288;51.136;16.928;2022-12-29T15:20:46;13.50;;;7.40;;
59474;SDS011;45288;51.136;16.928;2022-12-29T15:23:15;11.63;;;7.22;;
59474;SDS011;45288;51.136;16.928;2022-12-29T15:26:01;13.07;;;7.45;;
59474;SDS011;45288;51.136;16.928;2022-12-29T15:28:28;12.63;;;7.47;;
59474;SDS011;45288;51.136;16.928;2022-12-29T15:31:02;13.23;;;8.15;;
59474;SDS011;45288;51.136;16.928;2022-12-29T15:33:28;14.77;;;8.75;;
59474;SDS011;45288;51.136;16.928;2022-12-29T15:35:55;15.50;;;9.40;;
59474;SDS011;45288;51.136;16.928;2022-12-29T15:38:22;15.60;;;10.40;;
59474;SDS011;45288;51.136;16.928;2022-12-29T15:40:51;17.98;;;10.90;;
59474;SDS011;45288;51.136;16.928;2022-12-29T15:43:30;22.83;;;11.90;;
59474;SDS011;45288;51.136;16.928;2022-12-29T15:45:58;21.67;;;12.85;;
59474;SDS011;45288;51.136;16.928;2022-12-29T15:48:25;21.30;;;11.55;;
59474;SDS011;45288;51.136;16.928;2022-12-29T15:50:51;19.73;;;11.55;;
59474;SDS011;45288;51.136;16.928;2022-12-29T15:53:24;19.53;;;11.83;;
59474;SDS011;45288;51.136;16.928;2022-12-29T15:55:57;15.60;;;10.02;;
59474;SDS011;45288;51.136;16.928;2022-12-29T15:58:28;16.15;;;9.60;;
59474;SDS011;45288;51.136;16.928;2022-12-29T16:00:58;11.90;;;8.55;;
59474;SDS011;45288;51.136;16.928;2022-12-29T16:03:24;11.85;;;7.80;;
59474;SDS011;45288;51.136;16.928;2022-12-29T16:05:56;12.90;;;7.45;;
59474;SDS011;45288;51.136;16.928;2022-12-29T16:08:32;13.68;;;7.50;;
59474;SDS011;45288;51.136;16.928;2022-12-29T16:10:59;12.05;;;7.78;;
59474;SDS011;45288;51.136;16.928;2022-12-29T16:13:26;13.80;;;8.05;;
59474;SDS011;45288;51.136;16.928;2022-12-29T16:15:56;12.43;;;8.00;;
59474;SDS011;45288;51.136;16.928;2022-12-29T16:18:25;12.13;;;7.93;;
59474;SDS011;45288;51.136;16.928;2022-12-29T16:20:51;11.38;;;7.80;;
59474;SDS011;45288;51.136;16.928;2022-12-29T16:23:24;11.57;;;7.85;;
59474;SDS011;45288;51.136;16.928;2022-12-29T16:25:51;12.80;;;7.95;;
59474;SDS011;45288;51.136;16.928;2022-12-29T16:28:36;13.13;;;8.73;;
59474;SDS011;45288;51.136;16.928;2022-12-29T16:31:05;16.23;;;9.32;;
59474;SDS011;45288;51.136;16.928;2022-12-29T16:36:02;18.02;;;10.73;;
59474;SDS011;45288;51.136;16.928;2022-12-29T16:38:31;16.10;;;10.20;;
59474;SDS011;45288;51.136;16.928;2022-12-29T16:40:58;15.63;;;10.00;;
59474;SDS011;45288;51.136;16.928;2022-12-29T16:48:29;16.33;;;10.32;;
59474;SDS011;45288;51.136;16.928;2022-12-29T16:51:16;14.43;;;9.98;;
59474;SDS011;45288;51.136;16.928;2022-12-29T16:53:42;16.15;;;10.27;;
59474;SDS011;45288;51.136;16.928;2022-12-29T16:56:15;14.68;;;10.00;;
59474;SDS011;45288;51.136;16.928;2022-12-29T16:58:46;14.02;;;9.63;;
59474;SDS011;45288;51.136;16.928;2022-12-29T17:01:12;14.95;;;9.75;;
59474;SDS011;45288;51.136;16.928;2022-12-29T17:03:41;14.40;;;9.57;;